Latest Coastal Weather Observations for Port Hedland

IDW60701

Issued at 12:55 pm WST Thursday 2 October 2014 (issued every 10 minutes, with the page automatically refreshed every 10 minutes)

About coastal observations | Map of coastal stations | Coastal observations for WA | Marine services | Other Formats
Station Details ID: 004032 Name: PORT HEDLAND AIRPORT Lat: -20.37 Lon: 118.63 Height: 6.4 m
Data from the previous 72 hours. | See also: Recent months at Port Hedland
Date/Time
WST
Temp

°C
Wind Pressure Rain
since 9am
mm
Weather Cloud Vis
km
Sea
Height
m
Swell
Dir
 
Speed
knots
Gust
knots
hPa Trend Height
m
Period
s
Dir
02/12:30pm 33.6 WNW 17 20 1011.0 - 0.0 - - 10 - - - -
02/12:00pm 33.7 NW 17 20 1011.2 F 0.0 Fine Clear 30 - - - -
02/11:30am 34.6 NW 13 19 1011.5 - 0.0 - - 10 - - - -
02/11:00am 35.2 NW 13 17 1011.7 - 0.0 - - 10 - - - -
02/10:30am 37.1 SW 9 13 1012.3 - 0.0 - - 10 - - - -
02/10:00am 35.9 S 7 10 1012.8 - 0.0 - - 10 - - - -
02/09:30am 34.6 S 6 11 1013.0 - 0.0 - - 10 - - - -
02/09:00am 33.5 S 7 11 1013.3 F 0.0 Fine Mostly clear 30 - - - -
02/08:30am 30.8 SW 6 8 1013.3 - 0.0 - - 10 - - - -
02/08:00am 28.5 SW 7 9 1013.3 - 0.0 - - 10 - - - -
02/07:30am 26.0 WSW 7 9 1013.1 - 0.0 - - 10 - - - -
02/07:00am 22.8 W 6 7 1012.8 - 0.0 - - 10 - - - -
02/06:30am 19.8 W 6 7 1012.5 - 0.0 - - 10 - - - -
02/06:00am 18.7 WSW 4 7 1012.3 R 0.0 Fine Mostly clear 30 - - - -
02/05:30am 18.6 WSW 6 7 1011.9 - 0.0 - - 10 - - - -
02/05:00am 19.2 WSW 7 7 1011.5 - 0.0 - - 10 - - - -
02/04:30am 19.6 WSW 7 8 1011.1 - 0.0 - - 10 - - - -
02/04:00am 19.6 WSW 6 7 1010.8 - 0.0 - - 10 - - - -
02/03:30am 20.3 WSW 7 9 1010.5 - 0.0 - - 10 - - - -
02/03:00am 20.6 W 7 8 1010.4 - 0.0 - - 10 - - - -
02/02:30am 21.3 WSW 8 8 1010.4 - 0.0 - - 10 - - - -
02/02:00am 21.9 WSW 8 9 1010.5 - 0.0 - - 10 - - - -
02/01:30am 22.8 WSW 8 9 1010.7 - 0.0 - - 10 - - - -
02/01:00am 22.9 W 8 10 1010.8 - 0.0 - - 10 - - - -
02/12:30am 23.7 W 8 10 1010.9 - 0.0 - - 10 - - - -
02/12:00am 24.5 W 8 10 1011.1 - 0.0 - - 10 - - - -
 
Date/Time
WST
Temp

°C
Wind Pressure Rain
since 9am
mm
Weather Cloud Vis
km
Sea
Height
m
Swell
Dir
 
Speed
knots
Gust
knots
hPa Trend Height
m
Period
s
Dir
01/11:30pm 25.3 W 9 11 1011.0 - 0.0 - - 10 - - - -
01/11:00pm 25.9 W 10 13 1011.2 - 0.0 - - 10 - - - -
01/10:30pm 26.4 W 9 12 1011.2 - 0.0 - - 10 - - - -
01/10:00pm 27.0 W 11 14 1011.2 - 0.0 - - 10 - - - -
01/09:30pm 27.4 W 11 14 1011.1 - 0.0 - - 10 - - - -
01/09:00pm 27.8 W 12 15 1010.9 - 0.0 - - 10 - - - -
01/08:30pm 28.2 W 13 15 1010.8 - 0.0 - - 10 - - - -
01/08:00pm 28.2 W 12 15 1010.6 - 0.0 - - 10 - - - -
01/07:30pm 28.6 W 12 16 1010.3 - 0.0 - - 10 - - - -
01/07:00pm 29.2 W 13 17 1010.0 - 0.0 - - 10 - - - -
01/06:30pm 30.3 W 14 18 1009.5 - 0.0 - - 10 - - - -
01/06:00pm 31.4 W 16 22 1009.3 - 0.0 - - 10 - - - -
01/05:30pm 32.7 W 17 23 1009.1 - 0.0 - - 10 - - - -
01/05:00pm 33.9 W 19 23 1009.0 - 0.0 - - 10 - - - -
01/04:30pm 34.2 WNW 18 22 1008.8 - 0.0 - - 10 - - - -
01/04:00pm 35.8 WNW 17 22 1008.6 - 0.0 - - 10 - - - -
01/03:30pm 35.4 WNW 20 25 1008.5 - 0.0 - - 10 - - - -
01/03:00pm 35.8 NW 18 24 1008.5 F 0.0 Fine Clear 30 - - - -
01/02:30pm 37.9 WNW 20 25 1008.6 - 0.0 - - 10 - - - -
01/02:00pm 38.5 WNW 17 22 1009.0 - 0.0 - - 10 - - - -
01/01:30pm 38.0 WNW 21 25 1009.4 - 0.0 - - 10 - - - -
01/01:00pm 37.3 NW 18 22 1009.9 - 0.0 - - 10 - - - -
01/12:30pm 37.7 NW 17 24 1010.4 - 0.0 - - 10 - - - -
01/12:21pm 37.2 NNW 17 19 1010.5 - 0.0 - - 10 - - - -
01/12:00pm 39.8 W 6 9 1011.1 F 0.0 Fine Clear 30 - - - -
01/11:30am 39.4 SSW 6 11 1011.7 - 0.0 - - 10 - - - -
01/11:00am 38.1 S 10 15 1012.3 - 0.0 - - 10 - - - -
01/10:30am 37.5 SW 10 14 1012.8 - 0.0 - - 10 - - - -
01/10:00am 36.6 S 9 13 1013.3 - 0.0 - - 10 - - - -
01/09:30am 36.1 S 8 13 1013.5 - 0.0 - - 10 - - - -
01/09:00am 33.5 S 11 14 1013.9 R 0.0 Fine Clear 30 - - - -
01/08:30am 32.2 S 7 9 1014.0 - 0.0 - - 10 - - - -
01/08:00am 29.4 SW 8 10 1013.6 - 0.0 - - 10 - - - -
01/07:30am 26.9 SW 7 10 1013.4 - 0.0 - - 10 - - - -
01/07:00am 23.5 WSW 6 8 1012.9 - 0.0 - - 10 - - - -
01/06:30am 20.9 SW 6 7 1012.4 - 0.0 - - 10 - - - -
01/06:00am 19.1 SW 7 8 1012.2 F 0.0 Fine Clear 30 - - - -
01/05:30am 19.3 SW 6 8 1012.1 - 0.0 - - 10 - - - -
01/05:00am 20.3 SW 7 8 1011.8 - 0.0 - - 10 - - - -
01/04:30am 18.7 WSW 6 7 1011.5 - 0.0 - - 10 - - - -
01/04:00am 19.5 SSW 5 6 1011.6 - 0.0 - - 10 - - - -
01/03:30am 20.0 SSW 6 8 1011.5 - 0.0 - - 10 - - - -
01/03:00am 19.9 WSW 7 9 1011.0 - 0.0 - - 10 - - - -
01/02:30am 22.1 SW 8 10 1011.1 - 0.0 - - 10 - - - -
01/02:00am 22.8 WSW 10 12 1011.1 - 0.0 - - 10 - - - -
01/01:30am 21.8 WSW 9 10 1011.2 - 0.0 - - 10 - - - -
01/01:00am 22.9 SW 8 11 1011.6 - 0.0 - - 10 - - - -
01/12:30am 23.0 SW 10 12 1011.7 - 0.0 - - 10 - - - -
01/12:00am 23.2 SW 10 12 1012.1 - 0.0 - - 10 - - - -
 
Date/Time
WST
Temp

°C
Wind Pressure Rain
since 9am
mm
Weather Cloud Vis
km
Sea
Height
m
Swell
Dir
 
Speed
knots
Gust
knots
hPa Trend Height
m
Period
s
Dir
30/11:30pm 21.3 W 7 8 1012.2 - 0.0 - - 10 - - - -
30/11:00pm 21.7 WSW 7 8 1012.6 - 0.0 - - 10 - - - -
30/10:30pm 21.6 WSW 7 8 1012.8 - 0.0 - - 10 - - - -
30/10:00pm 22.5 WSW 6 7 1012.9 - 0.0 - - 10 - - - -
30/09:30pm 23.8 WSW 8 9 1012.8 - 0.0 - - 10 - - - -
30/09:00pm 25.1 W 9 11 1012.8 - 0.0 - - 10 - - - -
30/08:30pm 25.5 W 9 12 1012.8 - 0.0 - - 10 - - - -
30/08:00pm 26.5 W 7 9 1012.6 - 0.0 - - 10 - - - -
30/07:30pm 27.7 W 10 12 1012.3 - 0.0 - - 10 - - - -
30/07:00pm 28.2 W 11 13 1012.0 - 0.0 - - 10 - - - -
30/06:30pm 29.0 W 10 13 1011.6 - 0.0 - - 10 - - - -
30/06:00pm 30.2 WNW 12 15 1011.2 - 0.0 - - 10 - - - -
30/05:30pm 31.9 WNW 13 16 1010.8 - 0.0 - - 10 - - - -
30/05:00pm 33.0 WNW 15 19 1010.5 - 0.0 - - 10 - - - -
30/04:30pm 34.0 WNW 18 22 1010.2 - 0.0 - - 10 - - - -
30/04:00pm 35.0 WNW 16 19 1010.1 - 0.0 - - 10 - - - -
30/03:30pm 35.3 WNW 16 20 1010.1 - 0.0 - - 10 - - - -
30/03:00pm 35.2 WNW 15 20 1010.1 R 0.0 Fine Clear 30 - - - -
30/02:30pm 35.9 NW 16 19 1010.3 - 0.0 - - 10 - - - -
30/02:00pm 35.9 NW 16 20 1010.3 - 0.0 - - 10 - - - -
30/01:30pm 36.6 NW 15 19 1010.6 - 0.0 - - 10 - - - -
30/01:00pm 36.8 NW 17 21 1010.8 - 0.0 - - 10 - - - -
30/12:47pm 37.1 NW 15 21 1010.9 - 0.0 - - 10 - - - -
30/12:30pm 37.1 ESE 5 10 1011.2 - 0.0 - - 10 - - - -
30/12:00pm 37.6 SW 6 11 1011.8 F 0.0 Fine Clear 30 - - - -
30/11:30am 36.1 ESE 4 9 1012.3 - 0.0 - - 10 - - - -
30/11:00am 36.5 S 5 7 1012.8 - 0.0 - - 10 - - - -
30/10:30am 36.0 S 7 10 1013.1 - 0.0 - - 10 - - - -
30/10:00am 34.8 SSW 8 12 1013.3 - 0.0 - - 10 - - - -
30/09:30am 34.7 S 9 14 1013.5 - 0.0 - - 10 - - - -
30/09:00am 33.4 SSE 12 15 1013.6 F 0.0 Fine Clear 30 - - - -
30/08:30am 31.9 S 11 15 1013.7 - 0.0 - - 10 - - - -
30/08:00am 28.9 S 9 12 1013.6 - 0.0 - - 10 - - - -
30/07:30am 25.4 S 7 9 1013.4 - 0.0 - - 10 - - - -
30/07:00am 22.3 SSW 7 8 1013.2 - 0.0 - - 10 - - - -
30/06:30am 20.0 S 7 9 1012.8 - 0.0 - - 10 - - - -
30/06:00am 19.3 SSW 6 7 1012.4 F 0.0 Fine Clear 30 - - - -
30/05:30am 19.2 SW 8 10 1012.2 - 0.0 - - 10 - - - -
30/05:00am 18.9 SW 7 8 1011.9 - 0.0 - - 10 - - - -
30/04:30am 18.6 WSW 7 8 1011.8 - 0.0 - - 10 - - - -
30/04:00am 18.8 WSW 8 8 1012.0 - 0.0 - - 10 - - - -
30/03:30am 19.5 SW 7 8 1012.0 - 0.0 - - 10 - - - -
30/03:00am 19.7 SW 6 7 1012.0 - 0.0 - - 10 - - - -
30/02:30am 19.5 W 7 8 1012.1 - 0.0 - - 10 - - - -
30/02:00am 20.8 W 7 8 1012.2 - 0.0 - - 10 - - - -
30/01:30am 20.4 W 8 9 1012.2 - 0.0 - - 10 - - - -
30/01:00am 20.2 W 5 6 1012.4 - 0.0 - - 10 - - - -
30/12:30am 21.1 SW 7 9 1012.5 - 0.0 - - 10 - - - -
30/12:00am 21.7 WSW 4 5 1012.7 - 0.0 - - 10 - - - -
 
Date/Time
WST
Temp

°C
Wind Pressure Rain
since 9am
mm
Weather Cloud Vis
km
Sea
Height
m
Swell
Dir
 
Speed
knots
Gust
knots
hPa Trend Height
m
Period
s
Dir
29/11:30pm 22.9 NW 4 5 1012.9 - 0.0 - - 10 - - - -
29/11:00pm 23.4 WNW 7 9 1013.0 - 0.0 - - 10 - - - -
29/10:30pm 24.0 W 11 14 1012.9 - 0.0 - - 10 - - - -
29/10:00pm 24.3 W 13 16 1013.2 - 0.0 - - 10 - - - -
29/09:30pm 24.3 W 12 15 1013.3 - 0.0 - - 10 - - - -
29/09:00pm 23.8 WNW 11 14 1013.5 - 0.0 - - 10 - - - -
29/08:30pm 24.0 WNW 10 12 1013.3 - 0.0 - - 10 - - - -
29/08:00pm 24.9 W 10 13 1012.8 - 0.0 - - 10 - - - -
29/07:30pm 24.9 W 10 12 1012.4 - 0.0 - - 10 - - - -
29/07:00pm 25.6 W 10 12 1012.1 - 0.0 - - 10 - - - -
29/06:30pm 26.0 WNW 10 13 1011.9 - 0.0 - - 10 - - - -
29/06:00pm 26.9 WNW 12 14 1011.6 - 0.0 - - 10 - - - -
29/05:30pm 28.2 WNW 13 17 1011.2 - 0.0 - - 10 - - - -
29/05:00pm 29.4 WNW 15 17 1010.9 - 0.0 - - 10 - - - -
29/04:30pm 30.8 WNW 14 19 1010.7 - 0.0 - - 10 - - - -
29/04:00pm 31.4 WNW 15 20 1010.6 - 0.0 - - 10 - - - -
29/03:30pm 32.6 NW 16 20 1010.6 - 0.0 - - 10 - - - -
29/03:00pm 32.8 NW 17 21 1010.6 R 0.0 Fine Mostly clear 30 - - - -
29/02:30pm 33.7 NW 16 20 1010.7 - 0.0 - - 10 - - - -
29/02:00pm 33.9 NW 15 19 1010.9 - 0.0 - - 10 - - - -
29/01:30pm 34.2 NW 15 18 1011.1 - 0.0 - - 10 - - - -
29/01:00pm 33.9 NW 13 16 1011.4 - 0.0 - - 10 - - - -

Other Formats:

Comma delimited format used in spreadsheet applications
http://www.bom.gov.au/fwo/IDW60701/IDW60701.94312.axf

JavaScript Object Notation format (JSON) in row-major order
http://www.bom.gov.au/fwo/IDW60701/IDW60701.94312.json